This is the latest recevied weather packets stored in our database for station/object KB8DOA. If no packets are shown the sender has not sent any weather packets the latest 10 day(s).
| Time | Temp. | Humidity | Pressure | Rain* | Wind** | Luminosity | Snow |
|---|---|---|---|---|---|---|---|
| 1777775104 | 27.78° C | 70% | 1011.1 hPa | 0 mm | - | 0 W/m² | - |
| 1777774204 | 28.33° C | 68% | 1011 hPa | 0 mm | - | 0 W/m² | - |
| 1777773604 | 28.33° C | 66% | 1011 hPa | 0 mm | - | 0 W/m² | - |
| 1777773304 | 28.33° C | 66% | 1011 hPa | 0 mm | - | 0 W/m² | - |
| 1777770603 | 28.89° C | 58% | 1011.3 hPa | 0 mm | - | 0 W/m² | - |
| 1777768504 | 30° C | 55% | 1011.3 hPa | 0 mm | - | 0 W/m² | - |
| 1777767604 | 30.56° C | 52% | 1011.6 hPa | 0 mm | - | 0 W/m² | - |
| 1777766704 | 30.56° C | 48% | 1011.9 hPa | 0 mm | - | 0 W/m² | - |
| 1777766104 | 31.11° C | 45% | 1012.5 hPa | 0 mm | - | 0 W/m² | - |
| 1777764303 | 31.67° C | 40% | 1012.3 hPa | 0 mm | - | 0 W/m² | - |
| 1777763403 | 32.22° C | 38% | 1012 hPa | 0 mm | - | 0 W/m² | - |
| 1777760104 | 33.33° C | 38% | 1011.9 hPa | 0 mm | - | 0 W/m² | - |
| 1777758904 | 33.33° C | 36% | 1011.7 hPa | 0 mm | - | 0 W/m² | - |
| 1777756504 | 33.89° C | 34% | 1011.6 hPa | 0 mm | - | 0 W/m² | - |
| 1777752904 | 33.89° C | 39% | 1011.7 hPa | 0 mm | - | 0 W/m² | - |
| 1777752604 | 33.89° C | 37% | 1012.1 hPa | 0 mm | - | 0 W/m² | - |
| 1777751704 | 34.44° C | 40% | 1012.2 hPa | 0 mm | - | 0 W/m² | - |
| 1777746903 | 32.78° C | 50% | 1013 hPa | 0 mm | - | 0 W/m² | - |
| 1777742104 | 30.56° C | 65% | 1011.3 hPa | 0 mm | - | 1293 W/m² | - |
| 1777740905 | 31.11° C | 63% | 1011.4 hPa | 0 mm | - | 1277 W/m² | - |
| 1777740003 | 31.11° C | 63% | 1012.2 hPa | 0 mm | - | 1256 W/m² | - |
| 1777738804 | 30° C | 69% | 1010.9 hPa | 0 mm | - | 1215 W/m² | - |
| 1777737604 | 29.44° C | 72% | 1010 hPa | 0 mm | - | 1162 W/m² | - |
| 1777737303 | 29.44° C | 71% | 1010.4 hPa | 0 mm | - | 1147 W/m² | - |
| 1777736703 | 30° C | 71% | 1010.2 hPa | 0 mm | - | 1115 W/m² | - |
* Rain latest hour (hover to see other rain measurements)
** Current wind speed in m/s (hover to see current wind gust speed)